createdAt,value
2017-06-22T00:00:21.657Z,9.00
2017-06-22T00:02:49.753Z,8.10
2017-06-22T00:05:18.171Z,8.40
2017-06-22T00:07:46.649Z,8.17
2017-06-22T00:10:15.158Z,8.70
2017-06-22T00:12:44.073Z,9.00
2017-06-22T00:15:13.510Z,8.20
2017-06-22T00:17:42.017Z,8.17
2017-06-22T00:20:10.115Z,8.13
2017-06-22T00:22:39.495Z,7.97
2017-06-22T00:25:07.899Z,8.57
2017-06-22T00:27:36.183Z,8.30
2017-06-22T00:30:05.322Z,8.50
2017-06-22T00:32:33.745Z,9.30
2017-06-22T00:35:02.109Z,9.60
2017-06-22T00:37:30.901Z,8.17
2017-06-22T00:39:58.878Z,8.30
2017-06-22T00:42:28.179Z,8.20
2017-06-22T00:44:56.994Z,9.00
2017-06-22T00:47:25.157Z,8.60
2017-06-22T00:49:54.128Z,8.27
2017-06-22T00:52:22.203Z,8.43
2017-06-22T00:54:50.813Z,8.87
2017-06-22T00:57:19.727Z,9.33
2017-06-22T00:59:48.708Z,9.20
2017-06-22T01:02:16.983Z,8.70
2017-06-22T01:04:45.288Z,9.13
2017-06-22T01:07:13.765Z,8.87
2017-06-22T01:09:42.305Z,8.50
2017-06-22T01:12:11.326Z,8.57
2017-06-22T01:14:40.152Z,8.50
2017-06-22T01:17:08.237Z,9.17
2017-06-22T01:19:37.008Z,9.80
2017-06-22T01:22:05.408Z,8.80
2017-06-22T01:24:33.969Z,9.03
2017-06-22T01:27:02.322Z,9.00
2017-06-22T01:29:30.905Z,8.83
2017-06-22T01:31:59.733Z,7.97
2017-06-22T01:34:28.218Z,9.47
2017-06-22T01:36:57.122Z,9.03
2017-06-22T01:39:25.842Z,10.03
2017-06-22T01:41:54.693Z,9.53
2017-06-22T01:44:23.078Z,8.70
2017-06-22T01:46:51.521Z,8.80
2017-06-22T01:49:19.963Z,8.70
2017-06-22T01:51:49.027Z,9.50
2017-06-22T01:54:17.874Z,9.57
2017-06-22T01:56:46.134Z,9.00
2017-06-22T01:59:14.501Z,8.27
2017-06-22T02:01:43.268Z,9.00
2017-06-22T02:04:11.689Z,8.80
2017-06-22T02:06:41.393Z,9.13
2017-06-22T02:09:10.387Z,7.80
2017-06-22T02:11:38.669Z,9.53
2017-06-22T02:14:06.335Z,8.10
2017-06-22T02:16:34.749Z,8.77
2017-06-22T02:19:04.032Z,8.57
2017-06-22T02:21:32.152Z,8.60
2017-06-22T02:24:00.246Z,7.77
2017-06-22T02:26:29.071Z,7.93
2017-06-22T02:28:58.651Z,8.67
2017-06-22T02:31:27.506Z,8.63
2017-06-22T02:33:56.363Z,8.53
2017-06-22T02:36:25.002Z,9.93
2017-06-22T02:38:53.961Z,8.80
2017-06-22T02:41:22.736Z,9.07
2017-06-22T02:43:50.749Z,8.53
2017-06-22T02:46:18.857Z,9.30
2017-06-22T02:48:47.987Z,9.00
2017-06-22T02:51:16.450Z,8.47
2017-06-22T02:53:45.162Z,8.97
2017-06-22T02:56:13.512Z,9.33
2017-06-22T02:58:42.584Z,8.70
2017-06-22T03:01:11.142Z,8.63
2017-06-22T03:03:40.083Z,9.20
2017-06-22T03:06:08.257Z,9.63
2017-06-22T03:08:36.746Z,8.37
2017-06-22T03:11:05.597Z,8.63
2017-06-22T03:13:34.254Z,9.40
2017-06-22T03:16:03.462Z,9.23
2017-06-22T03:18:32.532Z,9.40
2017-06-22T03:21:00.678Z,8.47
2017-06-22T03:23:29.302Z,9.40
2017-06-22T03:25:59.178Z,9.53
2017-06-22T03:28:27.490Z,8.93
2017-06-22T03:30:56.388Z,9.00
2017-06-22T03:33:25.107Z,9.30
2017-06-22T03:35:54.293Z,9.00
2017-06-22T03:38:22.911Z,8.73
2017-06-22T03:40:51.439Z,9.23
2017-06-22T03:43:19.823Z,10.03
2017-06-22T03:45:48.140Z,8.83
2017-06-22T03:48:16.780Z,9.10
2017-06-22T03:50:45.460Z,8.57
2017-06-22T03:53:13.911Z,9.10
2017-06-22T03:55:42.418Z,10.20
2017-06-22T03:58:10.952Z,8.90
2017-06-22T04:00:39.707Z,10.37
2017-06-22T04:03:08.266Z,10.17
2017-06-22T04:05:37.823Z,9.63
2017-06-22T04:08:05.577Z,9.80
2017-06-22T04:10:33.540Z,9.53
2017-06-22T04:13:02.067Z,9.37
2017-06-22T04:15:30.423Z,9.40
2017-06-22T04:17:59.342Z,9.33
2017-06-22T04:20:27.883Z,9.70
2017-06-22T04:22:55.834Z,8.83
2017-06-22T04:25:24.845Z,10.20
2017-06-22T04:27:54.089Z,9.23
2017-06-22T04:30:22.484Z,10.30
2017-06-22T04:32:51.156Z,11.00
2017-06-22T04:35:19.669Z,10.00
2017-06-22T04:37:48.980Z,10.47
2017-06-22T04:40:18.088Z,9.93
2017-06-22T04:42:46.921Z,10.10
2017-06-22T04:45:15.147Z,11.80
2017-06-22T04:47:44.513Z,10.20
2017-06-22T04:50:14.693Z,10.40
2017-06-22T04:52:44.437Z,9.83
2017-06-22T04:55:14.487Z,10.53
2017-06-22T04:57:44.024Z,11.40
2017-06-22T05:00:13.124Z,11.00
2017-06-22T05:02:42.997Z,10.73
2017-06-22T05:05:12.851Z,10.23
2017-06-22T05:07:43.222Z,11.13
2017-06-22T05:10:13.144Z,11.97
2017-06-22T05:12:42.522Z,11.90
2017-06-22T05:15:11.874Z,12.30
2017-06-22T05:17:41.010Z,13.63
2017-06-22T05:20:10.892Z,12.80
2017-06-22T05:22:40.982Z,12.30
2017-06-22T05:25:10.879Z,10.00
2017-06-22T05:27:40.930Z,11.50
2017-06-22T05:30:10.814Z,10.83
2017-06-22T05:32:40.648Z,12.60
2017-06-22T05:35:10.868Z,11.03
2017-06-22T05:37:41.043Z,11.73
2017-06-22T05:40:11.482Z,10.33
2017-06-22T05:42:41.206Z,10.90
2017-06-22T05:45:11.278Z,11.43
2017-06-22T05:47:41.023Z,11.20
2017-06-22T05:50:11.498Z,11.20
2017-06-22T05:52:41.187Z,10.70
2017-06-22T05:55:10.876Z,11.83
2017-06-22T05:57:40.482Z,11.17
2017-06-22T06:00:10.567Z,11.80
2017-06-22T06:02:40.485Z,11.50
2017-06-22T06:05:10.990Z,10.63
2017-06-22T06:07:40.894Z,10.40
2017-06-22T06:10:11.460Z,10.50
2017-06-22T06:12:41.224Z,11.10
2017-06-22T06:15:11.165Z,11.70
2017-06-22T06:17:40.647Z,12.20
2017-06-22T06:20:10.132Z,11.90
2017-06-22T06:22:39.470Z,11.30
2017-06-22T06:25:09.472Z,11.10
2017-06-22T06:27:39.777Z,12.80
2017-06-22T06:30:09.860Z,12.30
2017-06-22T06:32:39.870Z,12.70
2017-06-22T06:35:09.334Z,12.80
2017-06-22T06:37:39.162Z,13.00
2017-06-22T06:40:08.582Z,13.20
2017-06-22T06:42:39.226Z,14.70
2017-06-22T06:45:08.936Z,14.03
2017-06-22T06:47:39.467Z,12.90
2017-06-22T06:50:10.000Z,13.00
2017-06-22T06:52:40.525Z,14.10
2017-06-22T06:55:10.147Z,13.10
2017-06-22T06:57:41.545Z,12.97
2017-06-22T07:00:10.938Z,12.63
2017-06-22T07:02:41.336Z,12.27
2017-06-22T07:05:10.634Z,13.20
2017-06-22T07:07:39.606Z,12.77
2017-06-22T07:10:08.237Z,13.80
2017-06-22T07:12:37.720Z,14.10
2017-06-22T07:15:07.108Z,13.57
2017-06-22T07:17:37.046Z,13.97
2017-06-22T07:20:06.819Z,14.40
2017-06-22T07:22:36.956Z,15.40
2017-06-22T07:25:06.655Z,14.63
2017-06-22T07:27:36.283Z,13.17
2017-06-22T07:30:06.840Z,15.10
2017-06-22T07:32:36.597Z,14.30
2017-06-22T07:35:07.117Z,14.83
2017-06-22T07:37:36.785Z,14.80
2017-06-22T07:40:06.724Z,15.27
2017-06-22T07:42:36.065Z,14.27
2017-06-22T07:45:05.786Z,14.57
2017-06-22T07:47:34.612Z,14.97
2017-06-22T07:50:02.934Z,13.93
2017-06-22T07:52:33.246Z,13.40
2017-06-22T07:55:02.594Z,14.33
2017-06-22T07:57:32.135Z,14.10
2017-06-22T08:00:00.898Z,13.40
2017-06-22T08:02:31.330Z,14.77
2017-06-22T08:05:00.683Z,14.43
2017-06-22T08:07:30.198Z,13.90
2017-06-22T08:10:00.006Z,14.97
2017-06-22T08:12:29.913Z,14.30
2017-06-22T08:14:58.708Z,14.63
2017-06-22T08:17:27.204Z,13.67
2017-06-22T08:19:56.266Z,13.13
2017-06-22T08:22:24.982Z,14.00
2017-06-22T08:24:54.360Z,13.47
2017-06-22T08:27:26.083Z,15.00
2017-06-22T08:29:55.586Z,14.03
2017-06-22T08:32:26.100Z,13.60
2017-06-22T08:34:54.875Z,14.17
2017-06-22T08:37:24.111Z,13.63
2017-06-22T08:39:54.317Z,14.20
2017-06-22T08:42:23.511Z,14.30
2017-06-22T08:44:53.233Z,14.30
2017-06-22T08:47:22.662Z,13.30
2017-06-22T08:49:52.080Z,13.90
2017-06-22T08:52:20.796Z,12.90
2017-06-22T08:54:50.247Z,14.17
2017-06-22T08:57:19.308Z,14.10
2017-06-22T08:59:48.253Z,13.70
2017-06-22T09:02:17.166Z,13.77
2017-06-22T09:04:46.363Z,14.10
2017-06-22T09:07:15.619Z,13.00
2017-06-22T09:09:44.223Z,12.63
2017-06-22T09:12:12.891Z,12.60
2017-06-22T09:14:42.434Z,12.80
2017-06-22T09:17:11.817Z,13.73
2017-06-22T09:19:40.773Z,14.73
2017-06-22T09:22:10.005Z,13.73
2017-06-22T09:24:38.768Z,14.73
2017-06-22T09:27:06.985Z,14.17
2017-06-22T09:29:35.543Z,14.90
2017-06-22T09:32:04.292Z,12.93
2017-06-22T09:34:32.535Z,13.10
2017-06-22T09:37:02.263Z,14.23
2017-06-22T09:39:31.075Z,13.97
2017-06-22T09:42:00.237Z,13.70
2017-06-22T09:44:28.829Z,13.57
2017-06-22T09:46:57.633Z,14.97
2017-06-22T09:49:26.487Z,14.33
2017-06-22T09:51:56.510Z,15.17
2017-06-22T09:54:25.776Z,14.50
2017-06-22T09:56:54.402Z,13.90
2017-06-22T09:59:23.584Z,13.43
2017-06-22T10:01:52.491Z,14.37
2017-06-22T10:04:21.715Z,15.37
2017-06-22T10:06:50.468Z,14.70
2017-06-22T10:09:19.015Z,13.70
2017-06-22T10:11:47.635Z,14.37
2017-06-22T10:14:16.522Z,14.53
2017-06-22T10:16:45.220Z,14.90
2017-06-22T10:19:13.848Z,15.07
2017-06-22T10:21:43.223Z,14.30
2017-06-22T10:24:12.271Z,14.83
2017-06-22T10:26:41.201Z,15.00
2017-06-22T10:29:10.894Z,14.90
2017-06-22T10:31:41.099Z,14.83
2017-06-22T10:34:10.156Z,14.73
2017-06-22T10:36:39.003Z,15.03
2017-06-22T10:39:08.012Z,16.17
2017-06-22T10:41:37.120Z,16.73
2017-06-22T10:44:05.878Z,16.30
2017-06-22T10:46:34.716Z,16.07
2017-06-22T10:49:03.561Z,14.30
2017-06-22T10:51:32.216Z,14.83
2017-06-22T10:54:01.597Z,14.10
2017-06-22T10:56:30.161Z,14.20
2017-06-22T10:58:58.739Z,15.60
2017-06-22T11:01:27.735Z,15.27
2017-06-22T11:03:57.145Z,15.63
2017-06-22T11:06:25.730Z,15.50
2017-06-22T11:08:54.278Z,14.57
2017-06-22T11:11:22.987Z,14.10
2017-06-22T11:13:52.352Z,19.20
2017-06-22T11:16:21.337Z,14.00
2017-06-22T11:18:50.405Z,15.73
2017-06-22T11:21:19.424Z,15.40
2017-06-22T11:23:48.714Z,12.47
2017-06-22T11:26:17.611Z,13.10
2017-06-22T11:28:45.903Z,10.80
2017-06-22T11:31:14.983Z,10.80
2017-06-22T11:33:44.032Z,9.17
2017-06-22T11:36:13.565Z,9.20
2017-06-22T11:38:42.459Z,10.10
2017-06-22T11:41:11.235Z,10.30
2017-06-22T11:43:39.802Z,9.97
2017-06-22T11:46:07.950Z,9.23
2017-06-22T11:48:36.430Z,9.73
2017-06-22T11:51:05.017Z,9.60
2017-06-22T11:53:33.547Z,9.67
2017-06-22T11:56:02.327Z,9.80
2017-06-22T11:58:31.518Z,9.90
2017-06-22T12:00:59.883Z,9.10
2017-06-22T12:03:28.310Z,10.87
2017-06-22T12:05:56.785Z,9.10
2017-06-22T12:08:25.163Z,9.60
2017-06-22T12:10:54.200Z,9.17
2017-06-22T12:13:23.488Z,8.30
2017-06-22T12:15:52.358Z,9.57
2017-06-22T12:18:21.002Z,9.90
2017-06-22T12:20:50.483Z,9.50
2017-06-22T12:23:19.305Z,10.40
2017-06-22T12:25:48.232Z,10.33
2017-06-22T12:28:16.527Z,9.50
2017-06-22T12:30:45.950Z,10.07
2017-06-22T12:33:14.483Z,10.27
2017-06-22T12:35:43.035Z,10.17
2017-06-22T12:38:11.655Z,9.87
2017-06-22T12:40:40.633Z,11.70
2017-06-22T12:43:09.619Z,13.23
2017-06-22T12:45:38.849Z,15.07
2017-06-22T12:48:07.127Z,13.87
2017-06-22T12:50:35.675Z,14.80
2017-06-22T12:53:04.901Z,15.10
2017-06-22T12:55:33.947Z,12.43
2017-06-22T12:58:03.323Z,12.20
2017-06-22T13:00:32.227Z,12.77
2017-06-22T13:03:00.616Z,11.57
2017-06-22T13:05:29.763Z,11.10
2017-06-22T13:07:59.054Z,11.33
2017-06-22T13:10:28.359Z,12.37
2017-06-22T13:12:56.930Z,12.63
2017-06-22T13:15:26.209Z,11.83
2017-06-22T13:17:55.032Z,12.27
2017-06-22T13:20:23.642Z,12.20
2017-06-22T13:22:52.711Z,13.00
2017-06-22T13:25:21.761Z,13.10
2017-06-22T13:27:50.826Z,12.40
2017-06-22T13:30:19.704Z,11.60
2017-06-22T13:32:48.818Z,11.80
2017-06-22T13:35:17.718Z,12.23
2017-06-22T13:37:46.545Z,12.17
2017-06-22T13:40:16.043Z,11.00
2017-06-22T13:42:45.383Z,11.20
2017-06-22T13:45:14.189Z,11.20
2017-06-22T13:47:42.684Z,12.20
2017-06-22T13:50:11.373Z,11.20
2017-06-22T13:52:40.078Z,12.27
2017-06-22T13:55:08.866Z,11.37
2017-06-22T13:57:38.036Z,12.30
2017-06-22T14:00:07.143Z,11.80
2017-06-22T14:02:36.194Z,11.67
2017-06-22T14:05:05.081Z,11.13
2017-06-22T14:07:34.903Z,11.97
2017-06-22T14:10:04.178Z,11.70
2017-06-22T14:12:34.578Z,10.70
2017-06-22T14:15:04.267Z,9.60
2017-06-22T14:17:34.808Z,9.20
2017-06-22T14:20:05.018Z,8.97
2017-06-22T14:22:35.925Z,7.93
2017-06-22T14:25:06.214Z,7.47
2017-06-22T14:27:36.265Z,7.90
2017-06-22T14:30:07.197Z,6.77
2017-06-22T14:32:37.514Z,7.57
2017-06-22T14:35:06.838Z,7.77
2017-06-22T14:37:37.841Z,7.93
2017-06-22T14:40:07.271Z,8.37
2017-06-22T14:42:36.766Z,7.50
2017-06-22T14:45:07.749Z,8.03
2017-06-22T14:47:38.393Z,7.10
2017-06-22T14:50:08.634Z,8.00
2017-06-22T14:52:38.575Z,7.53
2017-06-22T14:55:08.954Z,8.70
2017-06-22T14:57:38.790Z,7.77
2017-06-22T15:00:07.533Z,7.83
2017-06-22T15:02:37.557Z,7.67
2017-06-22T15:05:07.283Z,8.57
2017-06-22T15:07:37.832Z,8.43
2017-06-22T15:10:08.262Z,9.97
2017-06-22T15:12:37.663Z,8.50
2017-06-22T15:15:07.848Z,9.50
2017-06-22T15:17:37.614Z,8.73
2017-06-22T15:20:06.407Z,9.20
2017-06-22T15:22:37.161Z,9.30
2017-06-22T15:25:06.922Z,10.33
2017-06-22T15:27:37.161Z,10.53
2017-06-22T15:30:07.890Z,11.13
2017-06-22T15:32:37.667Z,10.47
2017-06-22T15:35:07.115Z,11.37
2017-06-22T15:37:36.727Z,11.20
2017-06-22T15:40:05.693Z,10.03
2017-06-22T15:42:35.264Z,10.90
2017-06-22T15:45:05.136Z,11.23
2017-06-22T15:47:35.450Z,12.10
2017-06-22T15:50:05.012Z,10.50
2017-06-22T15:52:34.881Z,11.13
2017-06-22T15:55:04.509Z,11.33
2017-06-22T15:57:33.641Z,11.83
2017-06-22T16:00:03.711Z,11.07
2017-06-22T16:02:33.352Z,10.03
2017-06-22T16:05:03.248Z,11.10
2017-06-22T16:07:32.926Z,9.50
2017-06-22T16:10:02.665Z,9.33
2017-06-22T16:12:32.865Z,9.97
2017-06-22T16:15:02.287Z,9.93
2017-06-22T16:17:31.664Z,9.20
2017-06-22T16:20:01.640Z,9.43
2017-06-22T16:22:31.419Z,9.20
2017-06-22T16:25:01.698Z,10.40
2017-06-22T16:27:31.824Z,9.10
2017-06-22T16:30:01.956Z,8.70
2017-06-22T16:32:32.780Z,9.10
2017-06-22T16:35:03.002Z,9.00
2017-06-22T16:37:33.749Z,9.17
2017-06-22T16:40:03.885Z,8.90
2017-06-22T16:42:35.284Z,10.07
2017-06-22T16:45:05.193Z,10.17
2017-06-22T16:47:34.311Z,9.80
2017-06-22T16:50:04.418Z,9.83
2017-06-22T16:52:34.515Z,10.63
2017-06-22T16:55:03.930Z,9.90
2017-06-22T16:57:33.060Z,11.10
2017-06-22T17:00:02.552Z,9.63
2017-06-22T17:02:31.856Z,9.83
2017-06-22T17:05:01.448Z,9.57
2017-06-22T17:07:31.087Z,9.00
2017-06-22T17:10:00.352Z,9.53
2017-06-22T17:12:30.028Z,9.10
2017-06-22T17:14:59.298Z,9.20
2017-06-22T17:17:28.873Z,9.63
2017-06-22T17:19:57.425Z,9.30
2017-06-22T17:22:26.576Z,9.50
2017-06-22T17:24:56.225Z,18.80
2017-06-22T17:27:25.607Z,15.13
2017-06-22T17:29:55.325Z,12.30
2017-06-22T17:32:24.399Z,10.73
2017-06-22T17:34:53.506Z,9.43
2017-06-22T17:37:22.439Z,8.83
2017-06-22T17:39:51.796Z,9.63
2017-06-22T17:42:20.344Z,9.97
2017-06-22T17:44:49.292Z,9.90
2017-06-22T17:47:18.608Z,9.10
2017-06-22T17:49:48.246Z,9.60
2017-06-22T17:52:18.113Z,10.10
2017-06-22T17:54:47.718Z,9.83
2017-06-22T17:57:17.930Z,10.30
2017-06-22T17:59:47.408Z,8.93
2017-06-22T18:02:16.246Z,9.93
2017-06-22T18:04:45.995Z,9.60
2017-06-22T18:07:14.586Z,10.70
2017-06-22T18:09:44.060Z,8.50
2017-06-22T18:12:13.282Z,9.33
2017-06-22T18:14:42.249Z,9.67
2017-06-22T18:17:10.961Z,9.70
2017-06-22T18:19:40.201Z,9.83
2017-06-22T18:22:10.036Z,9.73
2017-06-22T18:24:39.299Z,9.37
2017-06-22T18:27:09.138Z,9.37
2017-06-22T18:29:39.055Z,9.83
2017-06-22T18:32:08.123Z,9.10
2017-06-22T18:34:37.534Z,9.97
2017-06-22T18:37:06.616Z,9.43
2017-06-22T18:39:35.593Z,9.37
2017-06-22T18:42:04.233Z,9.53
2017-06-22T18:44:33.250Z,10.13
2017-06-22T18:47:01.540Z,9.40
2017-06-22T18:49:30.297Z,9.40
2017-06-22T18:51:58.513Z,10.40
2017-06-22T18:54:27.010Z,11.20
2017-06-22T18:56:56.548Z,10.60
2017-06-22T18:59:25.964Z,10.83
2017-06-22T19:01:56.316Z,11.03
2017-06-22T19:04:24.643Z,11.20
2017-06-22T19:06:52.122Z,11.20
2017-06-22T19:09:20.053Z,10.97
2017-06-22T19:11:47.549Z,10.90
2017-06-22T19:14:15.008Z,11.07
2017-06-22T19:16:42.487Z,10.77
2017-06-22T19:19:10.519Z,11.20
2017-06-22T19:21:37.997Z,10.20
2017-06-22T19:24:05.461Z,11.50
2017-06-22T19:26:33.018Z,9.47
2017-06-22T19:29:00.482Z,10.47
2017-06-22T19:31:28.758Z,9.80
2017-06-22T19:33:56.255Z,10.17
2017-06-22T19:36:24.138Z,10.20
2017-06-22T19:38:51.998Z,10.87
2017-06-22T19:41:19.950Z,10.30
2017-06-22T19:43:47.407Z,10.50
2017-06-22T19:46:14.897Z,10.50
2017-06-22T19:48:42.795Z,11.40
2017-06-22T19:51:10.254Z,11.90
2017-06-22T19:53:37.747Z,12.03
2017-06-22T19:56:05.324Z,11.53
2017-06-22T19:58:32.803Z,11.30
2017-06-22T20:01:00.256Z,13.23
2017-06-22T20:03:27.773Z,11.57
2017-06-22T20:05:55.238Z,11.80
2017-06-22T20:08:22.701Z,11.63
2017-06-22T20:10:50.385Z,12.63
2017-06-22T20:13:17.838Z,12.60
2017-06-22T20:15:45.315Z,11.83
2017-06-22T20:18:12.822Z,15.07
2017-06-22T20:20:40.704Z,27.87
2017-06-22T20:23:08.269Z,17.23
2017-06-22T20:25:36.137Z,14.73
2017-06-22T20:28:04.047Z,13.03
2017-06-22T20:30:31.553Z,12.60
2017-06-22T20:32:59.042Z,13.23
2017-06-22T20:35:26.529Z,13.37
2017-06-22T20:37:54.048Z,13.43
2017-06-22T20:40:22.427Z,15.20
2017-06-22T20:42:49.886Z,14.13
2017-06-22T20:45:17.388Z,13.60
2017-06-22T20:47:44.888Z,13.90
2017-06-22T20:50:12.341Z,13.97
2017-06-22T20:52:39.838Z,14.53
2017-06-22T20:55:07.361Z,14.40
2017-06-22T20:57:34.828Z,14.53
2017-06-22T21:00:02.317Z,14.97
2017-06-22T21:02:29.820Z,13.63
2017-06-22T21:04:57.327Z,13.07
2017-06-22T21:07:26.669Z,14.00
2017-06-22T21:09:54.581Z,14.63
2017-06-22T21:12:22.083Z,14.00
2017-06-22T21:14:49.553Z,14.33
2017-06-22T21:17:17.081Z,13.47
2017-06-22T21:19:44.551Z,13.50
2017-06-22T21:22:12.022Z,13.50
2017-06-22T21:24:39.533Z,14.60
2017-06-22T21:27:07.003Z,14.10
2017-06-22T21:29:34.471Z,14.20
2017-06-22T21:32:01.960Z,13.80
2017-06-22T21:34:29.447Z,13.40
2017-06-22T21:36:56.917Z,14.53
2017-06-22T21:39:24.383Z,12.77
2017-06-22T21:41:52.283Z,14.13
2017-06-22T21:44:20.124Z,14.60
2017-06-22T21:46:47.988Z,14.23
2017-06-22T21:49:15.973Z,12.80
2017-06-22T21:51:43.863Z,13.53
2017-06-22T21:54:11.379Z,13.27
2017-06-22T21:56:38.896Z,15.50
2017-06-22T21:59:06.755Z,15.30
2017-06-22T22:01:34.654Z,13.73
2017-06-22T22:04:02.136Z,12.83
2017-06-22T22:06:29.615Z,12.93
2017-06-22T22:08:57.126Z,13.20
2017-06-22T22:11:24.593Z,14.00
2017-06-22T22:13:52.055Z,14.53
2017-06-22T22:16:19.891Z,14.53
2017-06-22T22:18:47.342Z,13.87
2017-06-22T22:21:14.804Z,14.00
2017-06-22T22:23:42.598Z,15.17
2017-06-22T22:26:10.440Z,13.80
2017-06-22T22:28:37.918Z,14.47
2017-06-22T22:31:05.429Z,15.23
2017-06-22T22:33:32.892Z,15.50
2017-06-22T22:36:00.372Z,14.37
2017-06-22T22:38:27.872Z,14.50
2017-06-22T22:40:55.745Z,15.93
2017-06-22T22:43:23.609Z,13.87
2017-06-22T22:45:51.213Z,14.30
2017-06-22T22:48:18.712Z,15.20
2017-06-22T22:50:46.167Z,16.63
2017-06-22T22:53:13.649Z,16.33
2017-06-22T22:55:41.116Z,15.70
2017-06-22T22:58:08.625Z,15.93
2017-06-22T23:00:36.092Z,16.77
2017-06-22T23:03:05.098Z,15.90
2017-06-22T23:05:32.619Z,16.97
2017-06-22T23:08:00.469Z,16.63
2017-06-22T23:10:27.939Z,15.67
2017-06-22T23:12:55.418Z,15.60
2017-06-22T23:15:23.281Z,16.13
2017-06-22T23:17:50.992Z,14.97
2017-06-22T23:20:18.455Z,14.77
2017-06-22T23:22:45.908Z,14.60
2017-06-22T23:25:13.415Z,15.13
2017-06-22T23:27:40.885Z,13.90
2017-06-22T23:30:08.348Z,13.87
2017-06-22T23:32:35.876Z,14.53
2017-06-22T23:35:03.884Z,13.53
2017-06-22T23:37:31.453Z,12.00
2017-06-22T23:39:58.932Z,12.80
2017-06-22T23:42:26.806Z,13.00
2017-06-22T23:44:54.684Z,11.93
2017-06-22T23:47:22.144Z,12.20
2017-06-22T23:49:50.054Z,11.47
2017-06-22T23:52:17.510Z,11.63
2017-06-22T23:54:44.965Z,12.63
2017-06-22T23:57:12.456Z,11.10
2017-06-22T23:59:39.944Z,11.60
